createdAt,value
2023-08-29T00:01:49.258Z,25.09
2023-08-29T00:04:17.998Z,25.10
2023-08-29T00:06:46.674Z,25.12
2023-08-29T00:09:15.331Z,25.15
2023-08-29T00:11:45.060Z,25.19
2023-08-29T00:14:13.843Z,25.18
2023-08-29T00:16:42.566Z,25.15
2023-08-29T00:19:11.589Z,25.14
2023-08-29T00:21:40.304Z,25.11
2023-08-29T00:24:12.374Z,25.10
2023-08-29T00:26:42.527Z,25.08
2023-08-29T00:29:11.171Z,25.07
2023-08-29T00:31:40.343Z,25.04
2023-08-29T00:34:09.088Z,25.02
2023-08-29T00:36:37.812Z,25.02
2023-08-29T00:39:06.608Z,25.05
2023-08-29T00:41:35.439Z,25.14
2023-08-29T00:44:04.625Z,25.13
2023-08-29T00:46:33.357Z,25.17
2023-08-29T00:49:02.399Z,25.24
2023-08-29T00:51:31.173Z,25.22
2023-08-29T00:54:00.072Z,25.23
2023-08-29T00:56:29.089Z,25.26
2023-08-29T00:58:57.934Z,25.27
2023-08-29T01:01:27.428Z,25.25
2023-08-29T01:03:58.562Z,25.23
2023-08-29T01:06:27.701Z,25.19
2023-08-29T01:08:56.451Z,25.17
2023-08-29T01:11:41.536Z,25.16
2023-08-29T01:14:39.155Z,25.12
2023-08-29T01:17:40.970Z,25.09
2023-08-29T01:20:12.062Z,25.07
2023-08-29T01:23:20.879Z,25.07
2023-08-29T01:26:13.767Z,25.07
2023-08-29T01:28:46.127Z,25.05
2023-08-29T01:31:15.265Z,25.03
2023-08-29T01:33:44.598Z,25.01
2023-08-29T01:36:13.350Z,25.00
2023-08-29T01:38:42.104Z,25.04
2023-08-29T01:41:10.935Z,25.06
2023-08-29T01:43:39.629Z,25.05
2023-08-29T01:46:08.440Z,25.04
2023-08-29T01:48:38.809Z,25.06
2023-08-29T01:51:07.579Z,25.06
2023-08-29T01:53:36.297Z,25.04
2023-08-29T01:56:05.351Z,25.03
2023-08-29T01:58:36.245Z,25.01
2023-08-29T02:01:21.058Z,24.99
2023-08-29T02:03:52.834Z,24.96
2023-08-29T02:06:22.220Z,24.93
2023-08-29T02:08:51.022Z,24.91
2023-08-29T02:11:19.676Z,24.87
2023-08-29T02:13:48.384Z,24.78
2023-08-29T02:16:17.114Z,24.67
2023-08-29T02:18:45.780Z,24.52
2023-08-29T02:21:14.717Z,24.36
2023-08-29T02:23:43.373Z,24.22
2023-08-29T02:26:12.075Z,24.07
2023-08-29T02:28:40.887Z,23.91
2023-08-29T02:31:10.991Z,23.74
2023-08-29T02:33:40.120Z,23.61
2023-08-29T02:36:08.884Z,23.46
2023-08-29T02:38:37.607Z,23.30
2023-08-29T02:41:12.831Z,23.25
2023-08-29T02:43:41.467Z,23.23
2023-08-29T02:46:10.167Z,23.06
2023-08-29T02:48:38.845Z,23.01
2023-08-29T02:51:08.001Z,22.95
2023-08-29T02:53:36.805Z,22.90
2023-08-29T02:56:05.673Z,22.85
2023-08-29T02:58:34.372Z,22.70
2023-08-29T03:01:04.687Z,22.61
2023-08-29T03:03:33.690Z,22.62
2023-08-29T03:06:02.526Z,22.69
2023-08-29T03:08:31.968Z,22.82
2023-08-29T03:11:07.854Z,22.87
2023-08-29T03:13:36.631Z,22.81
2023-08-29T03:16:18.082Z,22.76
2023-08-29T03:18:48.659Z,22.76
2023-08-29T03:21:17.458Z,22.77
2023-08-29T03:23:46.413Z,22.76
2023-08-29T03:26:15.219Z,22.80
2023-08-29T03:28:45.232Z,22.90
2023-08-29T03:31:17.269Z,22.94
2023-08-29T03:33:46.196Z,23.04
2023-08-29T03:36:15.519Z,23.09
2023-08-29T03:38:44.882Z,23.11
2023-08-29T03:41:13.671Z,23.00
2023-08-29T03:43:43.861Z,22.90
2023-08-29T03:46:12.723Z,22.79
2023-08-29T03:48:42.507Z,22.69
2023-08-29T03:51:11.202Z,22.56
2023-08-29T03:53:40.009Z,22.52
2023-08-29T03:56:11.177Z,22.46
2023-08-29T03:58:40.019Z,22.41
2023-08-29T04:01:10.842Z,22.42
2023-08-29T04:03:39.736Z,22.38
2023-08-29T04:06:08.886Z,22.33
2023-08-29T04:08:37.568Z,22.30
2023-08-29T04:11:07.684Z,22.31
2023-08-29T04:13:36.332Z,22.30
2023-08-29T04:16:06.725Z,22.32
2023-08-29T04:18:35.454Z,22.34
2023-08-29T04:21:04.384Z,22.39
2023-08-29T04:23:33.055Z,22.47
2023-08-29T04:26:02.538Z,22.54
2023-08-29T04:28:31.430Z,22.67
2023-08-29T04:31:11.152Z,22.76
2023-08-29T04:33:40.709Z,22.92
2023-08-29T04:36:10.443Z,23.05
2023-08-29T04:38:39.821Z,23.20
2023-08-29T04:41:08.494Z,23.37
2023-08-29T04:43:37.193Z,23.50
2023-08-29T04:46:08.753Z,23.63
2023-08-29T04:48:38.248Z,23.78
2023-08-29T04:51:07.001Z,23.91
2023-08-29T04:53:35.693Z,24.05
2023-08-29T04:56:06.098Z,24.20
2023-08-29T04:58:38.246Z,24.36
2023-08-29T05:01:07.247Z,24.51
2023-08-29T05:03:36.556Z,24.65
2023-08-29T05:06:05.927Z,24.80
2023-08-29T05:08:37.628Z,24.95
2023-08-29T05:11:07.162Z,25.13
2023-08-29T05:13:35.894Z,25.36
2023-08-29T05:16:05.840Z,25.48
2023-08-29T05:18:34.809Z,25.59
2023-08-29T05:21:03.578Z,25.78
2023-08-29T05:23:32.353Z,25.90
2023-08-29T05:26:01.079Z,26.04
2023-08-29T05:28:30.195Z,26.17
2023-08-29T05:30:58.986Z,26.29
2023-08-29T05:33:27.728Z,26.42
2023-08-29T05:35:56.399Z,26.56
2023-08-29T05:38:26.875Z,26.69
2023-08-29T05:40:56.967Z,26.86
2023-08-29T05:43:25.869Z,26.98
2023-08-29T05:45:57.378Z,27.11
2023-08-29T05:48:26.344Z,27.24
2023-08-29T05:50:55.317Z,27.35
2023-08-29T05:53:23.987Z,27.46
2023-08-29T05:55:52.996Z,27.59
2023-08-29T05:58:23.092Z,27.67
2023-08-29T06:00:52.569Z,27.78
2023-08-29T06:03:23.267Z,27.92
2023-08-29T06:05:52.612Z,28.04
2023-08-29T06:08:21.602Z,28.13
2023-08-29T06:10:50.371Z,28.18
2023-08-29T06:13:19.084Z,28.37
2023-08-29T06:15:47.736Z,28.50
2023-08-29T06:18:16.434Z,28.64
2023-08-29T06:20:45.134Z,28.73
2023-08-29T06:23:14.478Z,28.88
2023-08-29T06:25:43.212Z,29.06
2023-08-29T06:28:11.960Z,29.20
2023-08-29T06:30:40.830Z,29.29
2023-08-29T06:33:09.806Z,29.46
2023-08-29T06:35:39.684Z,29.65
2023-08-29T06:38:09.593Z,29.79
2023-08-29T06:40:39.006Z,29.93
2023-08-29T06:43:07.812Z,30.02
2023-08-29T06:45:36.501Z,30.16
2023-08-29T06:48:06.294Z,30.32
2023-08-29T06:50:36.181Z,30.45
2023-08-29T06:53:05.541Z,30.56
2023-08-29T06:55:36.327Z,30.70
2023-08-29T06:58:06.552Z,30.82
2023-08-29T07:00:35.837Z,30.96
2023-08-29T07:03:05.825Z,31.11
2023-08-29T07:05:35.318Z,31.23
2023-08-29T07:08:05.593Z,31.40
2023-08-29T07:10:34.930Z,31.58
2023-08-29T07:13:05.318Z,31.67
2023-08-29T07:15:34.079Z,31.73
2023-08-29T07:18:07.067Z,31.85
2023-08-29T07:20:36.276Z,31.95
2023-08-29T07:23:05.842Z,32.12
2023-08-29T07:25:44.933Z,32.24
2023-08-29T07:28:15.027Z,32.39
2023-08-29T07:30:47.203Z,32.52
2023-08-29T07:33:16.664Z,32.60
2023-08-29T07:35:48.134Z,32.68
2023-08-29T07:38:19.208Z,32.70
2023-08-29T07:40:48.822Z,32.77
2023-08-29T07:43:17.670Z,32.95
2023-08-29T07:45:47.785Z,33.03
2023-08-29T07:48:16.552Z,33.12
2023-08-29T07:50:45.462Z,33.28
2023-08-29T07:53:14.867Z,33.35
2023-08-29T07:55:43.680Z,33.50
2023-08-29T07:58:14.922Z,33.54
2023-08-29T08:00:44.123Z,33.63
2023-08-29T08:03:12.874Z,33.69
2023-08-29T08:05:42.142Z,33.68
2023-08-29T08:08:10.958Z,33.75
2023-08-29T08:10:39.666Z,33.85
2023-08-29T08:13:08.522Z,33.87
2023-08-29T08:15:37.238Z,33.92
2023-08-29T08:18:06.516Z,34.05
2023-08-29T08:20:37.793Z,34.25
2023-08-29T08:23:08.334Z,34.42
2023-08-29T08:25:40.344Z,34.60
2023-08-29T08:28:09.443Z,34.63
2023-08-29T08:30:38.880Z,34.70
2023-08-29T08:33:08.270Z,34.80
2023-08-29T08:35:41.495Z,34.90
2023-08-29T08:38:17.181Z,35.00
2023-08-29T08:40:45.935Z,35.08
2023-08-29T08:43:15.609Z,35.22
2023-08-29T08:45:44.727Z,35.28
2023-08-29T08:48:13.857Z,35.49
2023-08-29T08:50:45.754Z,35.62
2023-08-29T08:53:16.443Z,35.70
2023-08-29T08:55:45.375Z,35.86
2023-08-29T08:58:14.961Z,35.85
2023-08-29T09:00:43.660Z,35.66
2023-08-29T09:03:15.264Z,35.64
2023-08-29T09:05:44.600Z,35.89
2023-08-29T09:08:13.401Z,35.91
2023-08-29T09:10:42.608Z,35.92
2023-08-29T09:13:20.730Z,35.84
2023-08-29T09:15:49.651Z,35.91
2023-08-29T09:18:32.748Z,35.84
2023-08-29T09:21:02.366Z,35.88
2023-08-29T09:23:38.726Z,36.06
2023-08-29T09:26:12.109Z,36.25
2023-08-29T09:28:41.915Z,36.41
2023-08-29T09:31:16.811Z,36.37
2023-08-29T09:33:48.377Z,36.28
2023-08-29T09:36:17.357Z,36.18
2023-08-29T09:38:46.468Z,35.92
2023-08-29T09:41:15.905Z,36.21
2023-08-29T09:43:49.248Z,36.55
2023-08-29T09:46:27.505Z,36.54
2023-08-29T09:48:57.073Z,36.73
2023-08-29T09:51:27.637Z,36.63
2023-08-29T09:53:59.352Z,36.71
2023-08-29T09:56:30.597Z,36.76
2023-08-29T09:59:02.993Z,36.95
2023-08-29T10:01:32.173Z,37.03
2023-08-29T10:04:07.481Z,37.00
2023-08-29T10:06:38.739Z,36.84
2023-08-29T10:09:08.323Z,37.01
2023-08-29T10:11:48.910Z,37.18
2023-08-29T10:14:24.688Z,37.32
2023-08-29T10:16:55.380Z,37.53
2023-08-29T10:19:24.206Z,37.66
2023-08-29T10:21:54.813Z,37.96
2023-08-29T10:24:24.609Z,38.13
2023-08-29T10:26:53.605Z,37.99
2023-08-29T10:29:22.548Z,38.19
2023-08-29T10:31:51.740Z,38.07
2023-08-29T10:34:21.586Z,38.06
2023-08-29T10:36:51.381Z,38.61
2023-08-29T10:39:21.178Z,38.90
2023-08-29T10:41:55.301Z,39.00
2023-08-29T10:44:33.175Z,38.95
2023-08-29T10:47:47.906Z,39.11
2023-08-29T10:50:27.156Z,38.92
2023-08-29T10:52:57.848Z,38.82
2023-08-29T10:55:33.382Z,39.16
2023-08-29T10:58:32.022Z,38.85
2023-08-29T11:01:01.070Z,39.23
2023-08-29T11:03:50.251Z,39.74
2023-08-29T11:06:20.620Z,40.34
2023-08-29T11:08:49.792Z,40.55
2023-08-29T11:11:23.336Z,40.64
2023-08-29T11:14:05.411Z,39.62
2023-08-29T11:16:36.775Z,39.06
2023-08-29T11:19:16.200Z,39.56
2023-08-29T11:21:48.098Z,39.64
2023-08-29T11:24:17.602Z,40.44
2023-08-29T11:26:47.959Z,41.09
2023-08-29T11:29:17.676Z,41.22
2023-08-29T11:31:47.403Z,40.26
2023-08-29T11:34:22.059Z,40.19
2023-08-29T11:36:52.694Z,40.69
2023-08-29T11:39:23.081Z,41.25
2023-08-29T11:42:02.882Z,41.09
2023-08-29T11:45:45.759Z,41.53
2023-08-29T11:47:30.352Z,42.05
2023-08-29T11:49:59.234Z,41.09
2023-08-29T11:52:28.051Z,41.51
2023-08-29T11:55:01.696Z,41.98
2023-08-29T11:57:31.560Z,41.80
2023-08-29T12:00:00.349Z,41.62
2023-08-29T12:02:30.419Z,42.08
2023-08-29T12:04:59.482Z,42.59
2023-08-29T12:07:35.022Z,41.83
2023-08-29T12:10:11.780Z,42.11
2023-08-29T12:12:40.951Z,41.56
2023-08-29T12:15:27.223Z,41.32
2023-08-29T12:17:56.578Z,41.75
2023-08-29T12:20:25.350Z,42.14
2023-08-29T12:22:54.472Z,41.23
2023-08-29T12:25:23.256Z,40.82
2023-08-29T12:27:52.168Z,41.30
2023-08-29T12:30:21.779Z,41.73
2023-08-29T12:32:50.883Z,41.30
2023-08-29T12:35:20.394Z,41.43
2023-08-29T12:37:50.029Z,41.57
2023-08-29T12:40:19.119Z,40.79
2023-08-29T12:42:50.700Z,40.52
2023-08-29T12:45:20.281Z,39.62
2023-08-29T12:47:49.458Z,39.40
2023-08-29T12:50:18.519Z,39.53
2023-08-29T12:52:47.348Z,39.22
2023-08-29T12:55:16.187Z,38.90
2023-08-29T12:57:45.521Z,38.95
2023-08-29T13:00:15.046Z,38.91
2023-08-29T13:02:44.740Z,39.20
2023-08-29T13:05:14.482Z,40.05
2023-08-29T13:07:43.247Z,40.89
2023-08-29T13:10:13.181Z,41.55
2023-08-29T13:12:41.965Z,41.96
2023-08-29T13:15:13.781Z,41.74
2023-08-29T13:17:42.529Z,41.74
2023-08-29T13:20:11.437Z,41.79
2023-08-29T13:22:41.395Z,42.05
2023-08-29T13:25:10.333Z,41.98
2023-08-29T13:27:39.340Z,41.85
2023-08-29T13:30:09.731Z,42.05
2023-08-29T13:32:38.575Z,42.56
2023-08-29T13:35:07.811Z,43.00
2023-08-29T13:37:36.594Z,42.76
2023-08-29T13:40:06.684Z,41.73
2023-08-29T13:42:35.866Z,42.66
2023-08-29T13:45:05.970Z,43.21
2023-08-29T13:47:34.761Z,43.64
2023-08-29T13:50:03.921Z,43.46
2023-08-29T13:52:33.033Z,43.65
2023-08-29T13:55:02.456Z,43.98
2023-08-29T13:57:32.208Z,44.86
2023-08-29T14:00:01.021Z,44.61
2023-08-29T14:02:30.178Z,43.36
2023-08-29T14:04:59.065Z,42.78
2023-08-29T14:07:27.811Z,43.17
2023-08-29T14:09:56.843Z,43.40
2023-08-29T14:12:26.118Z,43.54
2023-08-29T14:14:55.654Z,42.50
2023-08-29T14:17:24.915Z,41.55
2023-08-29T14:19:54.571Z,40.14
2023-08-29T14:22:23.504Z,39.68
2023-08-29T14:24:52.363Z,39.18
2023-08-29T14:27:21.237Z,39.22
2023-08-29T14:29:50.125Z,38.97
2023-08-29T14:32:19.897Z,39.13
2023-08-29T14:34:48.799Z,39.75
2023-08-29T14:37:17.701Z,40.48
2023-08-29T14:39:48.134Z,40.41
2023-08-29T14:42:17.128Z,40.51
2023-08-29T14:44:46.011Z,41.38
2023-08-29T14:47:14.750Z,42.15
2023-08-29T14:49:43.390Z,42.90
2023-08-29T14:52:12.140Z,43.09
2023-08-29T14:54:40.864Z,43.38
2023-08-29T14:57:09.658Z,43.61
2023-08-29T14:59:41.075Z,43.02
2023-08-29T15:02:09.871Z,43.13
2023-08-29T15:04:38.598Z,42.79
2023-08-29T15:07:07.331Z,43.38
2023-08-29T15:09:35.977Z,42.66
2023-08-29T15:12:05.829Z,42.37
2023-08-29T15:14:34.515Z,42.80
2023-08-29T15:17:04.958Z,42.83
2023-08-29T15:19:36.356Z,42.36
2023-08-29T15:22:05.275Z,41.08
2023-08-29T15:24:33.964Z,40.67
2023-08-29T15:27:02.704Z,39.27
2023-08-29T15:29:31.515Z,37.69
2023-08-29T15:32:00.249Z,36.72
2023-08-29T15:34:30.394Z,35.78
2023-08-29T15:36:59.599Z,34.77
2023-08-29T15:39:28.257Z,34.46
2023-08-29T15:41:59.703Z,34.21
2023-08-29T15:44:34.726Z,34.10
2023-08-29T15:47:05.599Z,33.62
2023-08-29T15:49:34.753Z,33.17
2023-08-29T15:52:04.273Z,32.82
2023-08-29T15:54:33.171Z,32.67
2023-08-29T15:57:04.082Z,32.46
2023-08-29T15:59:33.012Z,32.47
2023-08-29T16:02:01.738Z,32.30
2023-08-29T16:04:31.930Z,32.10
2023-08-29T16:07:00.886Z,31.63
2023-08-29T16:09:31.898Z,31.35
2023-08-29T16:12:00.616Z,31.38
2023-08-29T16:14:30.215Z,31.30
2023-08-29T16:16:59.108Z,31.05
2023-08-29T16:19:28.055Z,30.87
2023-08-29T16:21:56.849Z,30.78
2023-08-29T16:24:25.611Z,30.32
2023-08-29T16:26:54.321Z,30.06
2023-08-29T16:29:23.092Z,29.95
2023-08-29T16:31:51.782Z,29.78
2023-08-29T16:34:20.515Z,29.60
2023-08-29T16:36:49.340Z,29.61
2023-08-29T16:39:18.363Z,29.63
2023-08-29T16:41:52.017Z,29.68
2023-08-29T16:44:20.739Z,29.56
2023-08-29T16:46:49.507Z,29.56
2023-08-29T16:49:18.642Z,29.58
2023-08-29T16:51:47.594Z,29.44
2023-08-29T16:54:16.616Z,29.34
2023-08-29T16:56:46.061Z,29.31
2023-08-29T16:59:15.010Z,29.34
2023-08-29T17:01:43.953Z,29.31
2023-08-29T17:04:12.690Z,29.04
2023-08-29T17:06:41.504Z,28.95
2023-08-29T17:09:10.349Z,28.99
2023-08-29T17:11:39.149Z,29.03
2023-08-29T17:14:08.202Z,29.05
2023-08-29T17:16:37.016Z,29.02
2023-08-29T17:19:05.784Z,29.08
2023-08-29T17:21:34.963Z,29.11
2023-08-29T17:24:04.048Z,29.14
2023-08-29T17:26:32.955Z,29.15
2023-08-29T17:29:02.150Z,29.10
2023-08-29T17:31:31.623Z,29.09
2023-08-29T17:34:00.352Z,29.07
2023-08-29T17:36:29.030Z,29.06
2023-08-29T17:38:57.693Z,29.01
2023-08-29T17:41:29.485Z,28.98
2023-08-29T17:43:58.147Z,28.94
2023-08-29T17:46:26.913Z,28.88
2023-08-29T17:48:55.652Z,28.86
2023-08-29T17:51:24.425Z,28.85
2023-08-29T17:53:53.141Z,28.82
2023-08-29T17:56:23.362Z,28.80
2023-08-29T17:58:52.584Z,28.79
2023-08-29T18:01:21.373Z,28.75
2023-08-29T18:03:50.238Z,28.70
2023-08-29T18:06:25.190Z,28.60
2023-08-29T18:08:56.268Z,28.51
2023-08-29T18:11:25.065Z,28.45
2023-08-29T18:13:53.923Z,28.30
2023-08-29T18:16:22.704Z,28.09
2023-08-29T18:18:51.529Z,27.79
2023-08-29T18:21:20.230Z,27.68
2023-08-29T18:23:49.195Z,27.60
2023-08-29T18:26:17.975Z,27.63
2023-08-29T18:28:46.695Z,27.47
2023-08-29T18:31:15.476Z,27.40
2023-08-29T18:33:44.735Z,27.29
2023-08-29T18:36:13.573Z,27.27
2023-08-29T18:38:42.343Z,27.17
2023-08-29T18:41:11.401Z,27.04
2023-08-29T18:43:40.288Z,26.86
2023-08-29T18:46:09.385Z,26.73
2023-08-29T18:48:38.168Z,26.73
2023-08-29T18:51:06.857Z,26.73
2023-08-29T18:53:35.730Z,26.73
2023-08-29T18:56:04.758Z,26.67
2023-08-29T18:58:36.449Z,26.57
2023-08-29T19:01:06.277Z,26.53
2023-08-29T19:03:35.401Z,26.50
2023-08-29T19:06:13.045Z,26.49
2023-08-29T19:08:43.503Z,26.48
2023-08-29T19:11:15.756Z,26.49
2023-08-29T19:13:44.318Z,26.55
2023-08-29T19:16:13.018Z,26.60
2023-08-29T19:18:41.761Z,26.68
2023-08-29T19:21:10.487Z,26.81
2023-08-29T19:23:39.218Z,27.04
2023-08-29T19:26:07.979Z,27.14
2023-08-29T19:28:36.767Z,27.24
2023-08-29T19:31:05.574Z,27.35
2023-08-29T19:33:34.446Z,27.42
2023-08-29T19:36:18.020Z,27.46
2023-08-29T19:38:47.000Z,27.44
2023-08-29T19:41:15.811Z,27.45
2023-08-29T19:43:44.773Z,27.48
2023-08-29T19:46:14.509Z,27.50
2023-08-29T19:48:43.827Z,27.53
2023-08-29T19:51:12.616Z,27.57
2023-08-29T19:53:41.282Z,27.68
2023-08-29T19:56:15.832Z,27.77
2023-08-29T19:58:44.893Z,27.86
2023-08-29T20:01:13.725Z,27.86
2023-08-29T20:03:43.287Z,27.87
2023-08-29T20:06:15.342Z,27.83
2023-08-29T20:08:44.305Z,27.83
2023-08-29T20:11:13.062Z,27.82
2023-08-29T20:13:41.736Z,27.83
2023-08-29T20:16:10.440Z,27.78
2023-08-29T20:18:40.969Z,27.81
2023-08-29T20:21:09.752Z,27.78
2023-08-29T20:23:47.956Z,27.74
2023-08-29T20:26:24.772Z,27.71
2023-08-29T20:28:53.454Z,27.66
2023-08-29T20:31:22.847Z,27.64
2023-08-29T20:33:51.616Z,27.70
2023-08-29T20:36:20.341Z,27.70
2023-08-29T20:38:49.198Z,27.70
2023-08-29T20:41:17.979Z,27.78
2023-08-29T20:43:46.769Z,27.75
2023-08-29T20:46:16.255Z,27.70
2023-08-29T20:48:50.977Z,27.62
2023-08-29T20:51:20.336Z,27.53
2023-08-29T20:53:49.956Z,27.51
2023-08-29T20:56:19.003Z,27.47
2023-08-29T20:58:48.519Z,27.42
2023-08-29T21:01:17.473Z,27.36
2023-08-29T21:03:47.105Z,27.32
2023-08-29T21:06:19.239Z,27.24
2023-08-29T21:08:47.937Z,27.18
2023-08-29T21:11:19.344Z,27.10
2023-08-29T21:13:48.195Z,27.03
2023-08-29T21:16:16.934Z,26.93
2023-08-29T21:18:45.628Z,26.84
2023-08-29T21:21:14.361Z,26.76
2023-08-29T21:23:44.565Z,26.66
2023-08-29T21:26:13.561Z,26.53
2023-08-29T21:28:45.395Z,26.42
2023-08-29T21:31:16.108Z,26.32
2023-08-29T21:33:44.979Z,26.19
2023-08-29T21:36:13.800Z,26.15
2023-08-29T21:38:45.322Z,26.10
2023-08-29T21:41:15.715Z,26.06
2023-08-29T21:43:44.390Z,26.00
2023-08-29T21:46:13.110Z,25.94
2023-08-29T21:48:42.035Z,25.90
2023-08-29T21:51:14.108Z,25.88
2023-08-29T21:53:42.986Z,25.84
2023-08-29T21:56:12.233Z,25.80
2023-08-29T21:58:41.257Z,25.76
2023-08-29T22:01:12.581Z,25.72
2023-08-29T22:03:42.792Z,25.70
2023-08-29T22:06:11.647Z,25.67
2023-08-29T22:08:40.706Z,25.69
2023-08-29T22:11:09.405Z,25.83
2023-08-29T22:13:38.138Z,25.96
2023-08-29T22:16:07.210Z,26.09
2023-08-29T22:18:36.008Z,26.11
2023-08-29T22:21:08.831Z,26.17
2023-08-29T22:23:37.579Z,26.25
2023-08-29T22:26:10.110Z,26.40
2023-08-29T22:28:39.523Z,26.56
2023-08-29T22:31:08.561Z,26.63
2023-08-29T22:33:37.394Z,26.65
2023-08-29T22:36:06.499Z,26.65
2023-08-29T22:38:35.174Z,26.64
2023-08-29T22:41:21.282Z,26.63
2023-08-29T22:43:57.698Z,26.59
2023-08-29T22:46:26.397Z,26.55
2023-08-29T22:48:55.065Z,26.50
2023-08-29T22:51:23.931Z,26.48
2023-08-29T22:53:52.617Z,26.51
2023-08-29T22:56:21.378Z,26.55
2023-08-29T22:58:50.150Z,26.58
2023-08-29T23:01:20.687Z,26.56
2023-08-29T23:03:49.452Z,26.50
2023-08-29T23:06:23.134Z,26.49
2023-08-29T23:08:52.038Z,26.44
2023-08-29T23:11:20.739Z,26.41
2023-08-29T23:13:49.429Z,26.34
2023-08-29T23:16:18.165Z,26.37
2023-08-29T23:18:47.257Z,26.37
2023-08-29T23:21:16.610Z,26.31
2023-08-29T23:23:46.430Z,26.28
2023-08-29T23:26:18.376Z,26.31
2023-08-29T23:28:47.815Z,26.27
2023-08-29T23:31:16.659Z,26.22
2023-08-29T23:33:54.331Z,26.24
2023-08-29T23:36:23.472Z,26.20
2023-08-29T23:38:52.711Z,26.17
2023-08-29T23:41:21.539Z,26.21
2023-08-29T23:43:50.266Z,26.20
2023-08-29T23:46:19.106Z,26.19
2023-08-29T23:48:47.874Z,26.19
2023-08-29T23:51:17.103Z,26.06
2023-08-29T23:53:46.508Z,26.02
2023-08-29T23:56:18.646Z,26.11
2023-08-29T23:58:47.447Z,26.07
